Time;durP1;ratioP1;P1;durP2;ratioP2;P2;SDS_P1;SDS_P2;PMS_P1;PMS_P2;Temp;Humidity;BMP_temperature;BMP_pressure;BME280_temperature;BME280_humidity;BME280_pressure;Samples;Min_cycle;Max_cycle;Signal;HPM_P1;HPM_P2
2021/07/02 00:02:09;;;;;;;23.65;14.77;;;;;;;18.08;69.12;101153.00;5010009;28;20053;-41
2021/07/02 00:04:35;;;;;;;24.45;14.73;;;;;;;18.10;69.00;101145.03;5021499;28;20095;-41
2021/07/02 00:07:03;;;;;;;25.60;15.32;;;;;;;17.99;69.30;101140.53;5013853;28;20099;-41
2021/07/02 00:09:29;;;;;;;26.00;16.85;;;;;;;17.94;69.42;101150.09;5015341;28;20407;-41
2021/07/02 00:11:57;;;;;;;23.85;14.68;;;;;;;17.85;69.61;101145.97;5016078;28;20084;-42
2021/07/02 00:14:23;;;;;;;23.08;14.55;;;;;;;17.82;69.82;101139.16;5013745;28;20052;-40
2021/07/02 00:16:50;;;;;;;24.67;14.63;;;;;;;17.73;69.90;101141.47;5012325;28;20149;-40
2021/07/02 00:19:19;;;;;;;21.13;13.27;;;;;;;17.74;69.99;101131.09;5022059;28;20105;-40
2021/07/02 00:21:45;;;;;;;23.35;13.25;;;;;;;17.84;69.84;101135.97;5010264;28;20056;-41
2021/07/02 00:24:12;;;;;;;18.80;11.15;;;;;;;17.97;69.40;101128.91;5008210;28;20149;-41
2021/07/02 00:26:39;;;;;;;17.70;11.70;;;;;;;17.86;69.54;101136.41;5010344;28;20116;-41
2021/07/02 00:29:06;;;;;;;19.25;12.32;;;;;;;17.84;69.67;101127.56;4998229;28;20136;-38
2021/07/02 00:31:33;;;;;;;19.02;12.13;;;;;;;17.68;69.89;101127.00;5010148;28;20049;-41
2021/07/02 00:34:00;;;;;;;18.02;13.00;;;;;;;17.60;69.89;101129.75;5010255;28;20073;-40
2021/07/02 00:36:27;;;;;;;19.80;12.48;;;;;;;17.60;69.76;101126.94;5010986;28;20060;-39
2021/07/02 00:38:54;;;;;;;20.00;11.20;;;;;;;17.62;69.70;101130.16;5019777;28;20490;-39
2021/07/02 00:41:20;;;;;;;22.65;12.75;;;;;;;17.75;69.36;101132.69;5015604;28;20125;-40
2021/07/02 00:43:57;;;;;;;21.58;12.07;;;;;;;17.68;69.28;101132.59;5011795;28;20559;-41
2021/07/02 00:46:25;;;;;;;17.92;11.90;;;;;;;17.64;69.12;101132.56;5014960;28;20048;-39
2021/07/02 00:48:52;;;;;;;16.38;9.50;;;;;;;17.55;69.14;101118.84;4978611;28;20046;-40
2021/07/02 00:51:19;;;;;;;15.13;8.35;;;;;;;17.53;68.90;101120.44;5016368;28;20067;-41
2021/07/02 00:53:47;;;;;;;13.30;8.18;;;;;;;17.44;68.71;101117.94;5020792;28;20136;-39
2021/07/02 00:56:19;;;;;;;13.27;8.50;;;;;;;17.41;68.71;101112.28;5010927;28;20530;-40
2021/07/02 00:58:46;;;;;;;14.55;9.32;;;;;;;17.39;68.59;101115.47;5003774;28;20067;-40
2021/07/02 01:01:16;;;;;;;16.95;8.25;;;;;;;17.44;68.33;101123.53;5011709;28;20050;-40
2021/07/02 01:03:49;;;;;;;14.60;9.98;;;;;;;17.40;68.45;101116.25;4986382;28;20045;-40
2021/07/02 01:06:16;;;;;;;14.07;9.60;;;;;;;17.43;68.30;101121.91;5004512;28;20149;-40
2021/07/02 01:08:44;;;;;;;20.20;9.93;;;;;;;17.46;68.15;101118.34;5017403;28;20056;-40
2021/07/02 01:11:13;;;;;;;15.88;9.43;;;;;;;17.50;67.89;101110.00;5019340;28;20506;-40
2021/07/02 01:13:40;;;;;;;16.13;8.80;;;;;;;17.43;67.88;101113.50;5013953;28;20060;-40
2021/07/02 01:16:07;;;;;;;13.82;9.13;;;;;;;17.37;68.13;101105.81;4998101;28;20091;-40
2021/07/02 01:18:37;;;;;;;15.70;9.55;;;;;;;17.20;68.35;101104.44;5024465;28;20103;-43
2021/07/02 01:21:05;;;;;;;12.80;8.32;;;;;;;17.09;68.61;101106.31;4994748;28;20046;-40
2021/07/02 01:23:31;;;;;;;13.45;10.00;;;;;;;17.02;68.65;101107.00;5008073;28;20038;-41
2021/07/02 01:25:59;;;;;;;9.95;7.65;;;;;;;16.94;68.66;101096.91;5011052;28;20050;-41
2021/07/02 01:28:26;;;;;;;15.60;8.38;;;;;;;16.92;68.75;101092.88;4988969;28;20128;-41
2021/07/02 01:30:54;;;;;;;14.95;8.43;;;;;;;16.94;68.40;101090.53;5012474;28;20118;-41
2021/07/02 01:33:20;;;;;;;13.15;7.60;;;;;;;17.02;68.30;101087.41;4993670;28;20052;-41
2021/07/02 01:35:48;;;;;;;14.32;8.63;;;;;;;16.99;68.12;101084.59;5013531;28;20544;-40
2021/07/02 01:38:15;;;;;;;11.23;8.07;;;;;;;16.92;68.28;101085.28;5013930;28;20080;-41
2021/07/02 01:40:42;;;;;;;12.68;8.75;;;;;;;16.90;68.11;101086.88;5012998;28;20462;-41
2021/07/02 01:43:09;;;;;;;13.88;8.10;;;;;;;16.83;68.30;101078.38;5018725;28;20057;-41
2021/07/02 01:45:36;;;;;;;12.00;7.18;;;;;;;16.76;68.46;101075.50;5008008;28;20042;-41
2021/07/02 01:48:03;;;;;;;15.93;8.73;;;;;;;16.76;68.36;101075.50;5011170;28;20537;-41
2021/07/02 01:50:30;;;;;;;14.63;7.97;;;;;;;16.68;68.47;101071.00;5011341;28;20084;-41
2021/07/02 01:52:58;;;;;;;9.40;7.78;;;;;;;16.65;68.44;101068.97;5017914;28;20084;-40
2021/07/02 01:55:25;;;;;;;19.15;8.82;;;;;;;16.58;68.51;101068.84;5013941;28;20037;-41
2021/07/02 01:57:52;;;;;;;11.18;7.53;;;;;;;16.54;68.47;101068.81;5010051;28;20250;-44
2021/07/02 02:00:19;;;;;;;11.52;7.72;;;;;;;16.52;68.39;101070.34;5024648;28;20119;-41
2021/07/02 02:02:46;;;;;;;10.48;7.18;;;;;;;16.45;68.63;101076.63;5010684;28;20050;-40
2021/07/02 02:05:12;;;;;;;12.57;7.30;;;;;;;16.41;68.25;101070.97;5015642;28;20052;-42
2021/07/02 02:07:39;;;;;;;14.13;6.80;;;;;;;16.34;68.51;101065.28;5016951;28;20136;-40
2021/07/02 02:10:07;;;;;;;10.55;6.35;;;;;;;16.32;68.36;101058.47;5001815;28;20163;-41
2021/07/02 02:12:34;;;;;;;13.20;7.90;;;;;;;16.21;68.58;101063.88;5015296;28;20061;-40
2021/07/02 02:15:03;;;;;;;20.80;9.63;;;;;;;16.24;68.39;101051.16;5022802;28;20115;-40
2021/07/02 02:17:30;;;;;;;10.18;6.78;;;;;;;16.19;68.61;101045.88;5011667;28;20079;-40
2021/07/02 02:19:57;;;;;;;13.10;7.30;;;;;;;16.12;68.50;101052.19;5014716;28;20446;-40
2021/07/02 02:22:24;;;;;;;13.02;7.13;;;;;;;16.07;68.74;101041.31;5011208;28;20045;-40
2021/07/02 02:24:51;;;;;;;9.30;6.28;;;;;;;16.10;68.67;101037.75;5011133;28;20052;-40
2021/07/02 02:27:18;;;;;;;14.93;7.55;;;;;;;16.01;68.93;101034.44;4999409;28;20037;-40
2021/07/02 02:29:45;;;;;;;11.88;7.90;;;;;;;16.03;69.05;101029.28;5022331;28;20045;-40
2021/07/02 02:32:12;;;;;;;16.63;9.10;;;;;;;15.99;69.25;101031.19;5019722;28;20054;-38
2021/07/02 02:34:39;;;;;;;9.18;6.78;;;;;;;15.88;69.55;101019.06;5025069;28;20057;-38
2021/07/02 02:37:06;;;;;;;11.40;7.68;;;;;;;15.84;69.71;101021.81;4995882;28;20599;-38
2021/07/02 02:39:33;;;;;;;12.52;6.88;;;;;;;15.87;69.87;101016.66;5014822;28;20054;-38
2021/07/02 02:42:00;;;;;;;12.05;7.40;;;;;;;15.85;69.67;101011.44;5013188;28;20208;-40
2021/07/02 02:44:27;;;;;;;12.75;7.13;;;;;;;15.88;69.76;101002.31;5016291;28;20073;-38
2021/07/02 02:46:54;;;;;;;8.85;6.80;;;;;;;15.95;69.56;101004.41;5011887;28;20069;-38
2021/07/02 02:49:21;;;;;;;11.02;6.45;;;;;;;15.94;69.54;100998.00;5000368;28;20128;-38
2021/07/02 02:51:48;;;;;;;13.57;7.80;;;;;;;15.92;69.57;101000.38;5014374;28;20049;-39
2021/07/02 02:54:17;;;;;;;10.90;6.70;;;;;;;15.86;69.79;100998.31;5014083;28;20134;-38
2021/07/02 02:59:36;;;;;;;9.32;7.03;;;;;;;15.71;69.99;101005.63;5017069;28;20099;-38
2021/07/02 03:02:07;;;;;;;10.88;6.22;;;;;;;15.73;69.67;101003.25;5011798;28;20044;-39
2021/07/02 03:04:35;;;;;;;12.13;6.82;;;;;;;15.65;69.65;100998.72;5007488;28;20416;-38
2021/07/02 03:07:04;;;;;;;13.60;7.20;;;;;;;15.59;70.08;101003.03;5022241;28;20049;-38
2021/07/02 03:09:31;;;;;;;12.43;7.57;;;;;;;15.57;70.03;100997.81;5016098;28;20521;-38
2021/07/02 03:11:59;;;;;;;13.63;7.60;;;;;;;15.55;70.12;101002.97;5017729;28;20069;-39
2021/07/02 03:14:25;;;;;;;12.40;8.00;;;;;;;15.53;70.15;100998.94;5014106;28;20072;-39
2021/07/02 03:16:53;;;;;;;8.70;6.25;;;;;;;15.49;70.33;101000.88;5007526;28;20475;-39
2021/07/02 03:19:20;;;;;;;10.93;7.07;;;;;;;15.46;70.54;100990.44;5013132;28;20052;-39
2021/07/02 03:21:47;;;;;;;10.73;7.07;;;;;;;15.46;70.32;100991.22;5012925;28;20042;-42
2021/07/02 03:24:14;;;;;;;16.25;7.70;;;;;;;15.38;70.47;100983.09;5013303;28;20053;-38
2021/07/02 03:26:41;;;;;;;11.05;7.03;;;;;;;15.33;70.60;100986.19;4992952;28;20050;-38
2021/07/02 03:29:08;;;;;;;13.10;7.18;;;;;;;15.27;70.98;100982.09;5013562;28;20049;-42
2021/07/02 03:31:35;;;;;;;9.02;6.05;;;;;;;15.29;70.86;100976.94;5013733;28;20450;-39
2021/07/02 03:34:02;;;;;;;10.45;5.97;;;;;;;15.30;70.68;100981.38;5015444;28;20046;-38
2021/07/02 03:36:34;;;;;;;11.55;8.10;;;;;;;15.21;71.05;100979.63;5016296;28;20065;-39
2021/07/02 03:39:04;;;;;;;10.52;6.35;;;;;;;15.18;71.10;100980.34;5018587;28;20041;-38
2021/07/02 03:41:32;;;;;;;15.05;7.70;;;;;;;15.22;71.19;100969.28;5019907;28;20060;-38
2021/07/02 03:44:00;;;;;;;13.15;7.53;;;;;;;15.23;70.76;100977.25;5013190;28;20049;-38
2021/07/02 03:46:29;;;;;;;11.57;6.47;;;;;;;15.17;71.17;100978.72;5013927;28;20132;-38
2021/07/02 03:48:56;;;;;;;9.30;6.32;;;;;;;15.17;70.97;100983.50;5012805;28;20054;-38
2021/07/02 03:51:25;;;;;;;9.55;7.07;;;;;;;15.21;70.87;100976.84;5012428;28;20942;-39
2021/07/02 03:53:53;;;;;;;11.27;6.43;;;;;;;15.17;71.08;100989.06;5012263;28;20491;-38
2021/07/02 03:56:20;;;;;;;9.57;6.32;;;;;;;15.18;71.01;100997.09;5021377;28;20156;-39
2021/07/02 03:58:47;;;;;;;11.40;6.85;;;;;;;15.16;70.84;100988.28;5013030;28;20058;-38
2021/07/02 04:01:14;;;;;;;12.82;6.85;;;;;;;15.17;70.90;100989.88;5016836;28;20483;-39
2021/07/02 04:03:41;;;;;;;11.10;7.13;;;;;;;15.10;70.83;100981.41;5002825;28;20053;-39
2021/07/02 04:06:08;;;;;;;9.25;5.82;;;;;;;15.03;71.30;100984.06;5002966;28;20048;-38
2021/07/02 04:08:36;;;;;;;9.35;6.28;;;;;;;15.01;71.41;100986.38;5016707;28;20431;-38
2021/07/02 04:11:05;;;;;;;10.98;6.53;;;;;;;14.97;71.40;100988.31;5012452;28;20041;-41
2021/07/02 04:13:36;;;;;;;12.73;6.38;;;;;;;14.97;71.38;100991.09;5015935;28;20054;-38
2021/07/02 04:16:04;;;;;;;10.18;5.88;;;;;;;15.00;71.22;100982.00;5012125;28;20600;-39
2021/07/02 04:18:32;;;;;;;10.30;6.28;;;;;;;14.99;71.38;100987.94;5012598;28;20129;-39
2021/07/02 04:20:59;;;;;;;9.38;6.85;;;;;;;14.99;71.41;100988.75;5014053;28;20492;-38
2021/07/02 04:23:25;;;;;;;13.13;6.18;;;;;;;15.00;71.34;100987.59;5023024;28;20041;-39
2021/07/02 04:25:52;;;;;;;12.43;6.28;;;;;;;15.05;71.34;100984.50;5016140;28;20049;-38
2021/07/02 04:28:19;;;;;;;12.57;6.63;;;;;;;15.08;71.04;100986.56;5013340;28;20068;-38
2021/07/02 04:30:46;;;;;;;8.50;6.43;;;;;;;15.10;71.11;100992.56;5013317;28;20077;-38
2021/07/02 04:33:12;;;;;;;10.23;6.68;;;;;;;15.12;71.27;100986.59;5013803;28;20065;-38
2021/07/02 04:35:39;;;;;;;9.70;6.50;;;;;;;15.14;71.33;100989.84;5012371;28;20052;-39
2021/07/02 04:38:07;;;;;;;8.45;6.25;;;;;;;15.26;71.10;100984.06;5017929;28;20447;-38
2021/07/02 04:40:34;;;;;;;8.18;5.63;;;;;;;15.41;70.59;100987.94;4995965;28;20145;-38
2021/07/02 04:43:04;;;;;;;10.85;7.15;;;;;;;15.42;70.20;100989.53;5011434;28;20115;-39
2021/07/02 04:45:30;;;;;;;11.90;6.38;;;;;;;15.36;70.29;100989.03;5011606;28;20050;-38
2021/07/02 04:47:57;;;;;;;10.52;6.00;;;;;;;15.34;70.65;100987.78;5017067;28;20128;-38
2021/07/02 04:50:24;;;;;;;10.25;6.68;;;;;;;15.37;70.54;100987.06;5011923;28;20046;-38
2021/07/02 04:52:51;;;;;;;10.15;5.88;;;;;;;15.27;70.49;100980.91;5012247;28;20049;-38
2021/07/02 04:55:18;;;;;;;10.48;6.85;;;;;;;15.14;70.64;100979.47;5012716;28;20052;-41
2021/07/02 04:57:44;;;;;;;10.35;6.50;;;;;;;15.12;70.83;100986.59;5015796;28;20045;-38
2021/07/02 05:00:12;;;;;;;11.07;6.60;;;;;;;15.12;70.89;100987.41;5012363;28;20064;-39
2021/07/02 05:02:42;;;;;;;9.48;7.00;;;;;;;15.04;71.17;100980.09;4996475;28;20965;-39
2021/07/02 05:05:10;;;;;;;9.68;7.03;;;;;;;15.02;70.95;100971.28;5009618;28;20038;-39
2021/07/02 05:07:37;;;;;;;8.05;6.00;;;;;;;15.02;70.98;100964.91;5015142;28;20046;-38
2021/07/02 05:10:05;;;;;;;12.00;5.57;;;;;;;15.00;71.12;100970.03;5012050;28;20056;-38
2021/07/02 05:12:32;;;;;;;10.00;6.60;;;;;;;14.94;71.23;100969.53;5012267;28;20053;-38
2021/07/02 05:14:59;;;;;;;12.20;7.00;;;;;;;14.94;71.23;100975.13;5020387;28;20077;-38
2021/07/02 05:17:27;;;;;;;13.27;7.40;;;;;;;14.95;71.24;100976.75;5017234;28;20112;-39
2021/07/02 05:19:53;;;;;;;10.50;5.88;;;;;;;14.94;71.26;100971.50;5013362;28;20133;-38
2021/07/02 05:22:20;;;;;;;11.02;7.25;;;;;;;14.93;71.40;100973.50;5015090;28;20487;-38
2021/07/02 05:24:49;;;;;;;17.10;7.55;;;;;;;14.88;71.49;100975.78;5007218;28;20038;-38
2021/07/02 05:27:16;;;;;;;12.27;7.35;;;;;;;14.88;71.50;100968.22;4997117;28;20050;-40
2021/07/02 05:29:43;;;;;;;13.60;7.32;;;;;;;14.84;71.60;100967.34;5017049;28;20068;-42
2021/07/02 05:32:10;;;;;;;12.15;7.30;;;;;;;14.81;72.03;100976.44;4997730;28;20081;-39
2021/07/02 05:34:37;;;;;;;12.57;8.15;;;;;;;14.80;71.92;100969.25;5011294;28;20049;-38
2021/07/02 05:37:06;;;;;;;11.38;6.90;;;;;;;14.79;72.05;100967.66;5012605;28;20136;-39
2021/07/02 05:39:36;;;;;;;13.75;7.68;;;;;;;14.80;72.24;100966.47;5022351;28;20108;-39
2021/07/02 05:42:03;;;;;;;13.25;7.53;;;;;;;14.82;72.08;100972.50;5009620;28;20034;-38
2021/07/02 05:44:30;;;;;;;13.57;6.95;;;;;;;14.82;72.23;100977.25;5006883;28;20149;-38
2021/07/02 05:46:57;;;;;;;13.80;7.55;;;;;;;14.84;72.02;100972.94;5016932;28;20491;-39
2021/07/02 05:49:24;;;;;;;13.23;8.10;;;;;;;14.87;71.90;100975.00;5011111;28;20065;-38
2021/07/02 05:51:50;;;;;;;15.13;8.23;;;;;;;14.84;72.22;100978.50;5012383;28;20050;-38
2021/07/02 05:54:17;;;;;;;14.70;8.27;;;;;;;14.90;72.05;100979.81;4999488;28;20184;-38
2021/07/02 05:56:46;;;;;;;15.27;7.95;;;;;;;14.93;72.12;100983.84;5015792;28;20058;-42
2021/07/02 05:59:13;;;;;;;13.23;7.38;;;;;;;14.99;72.19;100997.13;5016719;28;20057;-38
2021/07/02 06:01:40;;;;;;;15.90;7.80;;;;;;;15.04;72.13;100994.03;5020851;28;20092;-38
2021/07/02 06:04:06;;;;;;;15.38;7.78;;;;;;;15.13;71.67;101004.94;5012618;28;20041;-39
2021/07/02 06:06:33;;;;;;;16.73;8.30;;;;;;;15.05;72.12;100998.44;5014857;28;20474;-38
2021/07/02 06:09:00;;;;;;;12.00;6.85;;;;;;;15.01;72.21;100997.53;5015190;28;20041;-40
2021/07/02 06:11:27;;;;;;;18.70;8.88;;;;;;;14.96;72.42;100999.81;5020249;28;20041;-39
2021/07/02 06:13:54;;;;;;;14.23;8.73;;;;;;;14.92;72.39;101002.56;5014556;28;20056;-38
2021/07/02 06:16:21;;;;;;;16.55;8.15;;;;;;;14.91;72.53;101003.72;5013665;28;20129;-39
2021/07/02 06:18:47;;;;;;;11.95;8.05;;;;;;;14.97;72.60;100995.88;5019997;28;20404;-38
2021/07/02 06:21:14;;;;;;;17.08;8.60;;;;;;;15.09;72.37;100995.72;5024322;28;20041;-39
2021/07/02 06:23:41;;;;;;;14.43;8.45;;;;;;;15.08;72.43;101000.50;5014496;28;20128;-39
2021/07/02 06:26:08;;;;;;;15.15;8.15;;;;;;;15.05;72.68;101006.81;5014275;28;20048;-41
2021/07/02 06:28:35;;;;;;;16.40;7.95;;;;;;;15.12;72.51;100998.56;5014246;28;20046;-39
2021/07/02 06:31:02;;;;;;;19.08;9.85;;;;;;;15.22;72.71;101003.53;5025385;28;20491;-39
2021/07/02 06:33:29;;;;;;;11.70;7.20;;;;;;;15.39;72.52;101004.22;5017232;28;20491;-39
2021/07/02 06:35:55;;;;;;;16.25;8.38;;;;;;;15.63;72.28;101015.06;5014053;28;20419;-39
2021/07/02 06:38:23;;;;;;;19.67;8.70;;;;;;;15.76;72.15;101010.88;5018722;28;20053;-38
2021/07/02 06:40:52;;;;;;;13.50;7.88;;;;;;;15.90;71.83;101018.69;5014035;28;20050;-39
2021/07/02 06:43:19;;;;;;;19.58;8.88;;;;;;;15.93;71.54;101010.38;5010070;28;20050;-39
2021/07/02 06:45:45;;;;;;;17.30;8.18;;;;;;;16.02;71.29;101012.91;5013626;28;20042;-39
2021/07/02 06:48:12;;;;;;;17.58;8.50;;;;;;;16.10;71.01;101012.63;4996454;28;20045;-41
2021/07/02 06:50:43;;;;;;;13.55;7.82;;;;;;;16.14;70.88;101009.91;5014208;28;20037;-39
2021/07/02 06:53:10;;;;;;;14.30;8.98;;;;;;;16.19;70.82;101007.59;5014024;28;20048;-42
2021/07/02 06:55:38;;;;;;;14.88;9.13;;;;;;;16.27;70.44;101009.31;5021733;28;20139;-40
2021/07/02 06:58:08;;;;;;;22.30;8.80;;;;;;;16.25;70.43;101011.69;4992181;28;20056;-39
2021/07/02 07:00:38;;;;;;;16.05;9.10;;;;;;;16.33;70.39;101024.56;5013773;28;20053;-39
2021/07/02 07:03:07;;;;;;;17.98;7.70;;;;;;;16.39;70.09;101011.03;5004125;28;20513;-39
2021/07/02 07:05:35;;;;;;;12.85;7.50;;;;;;;16.40;70.07;101013.47;5013171;28;20145;-40
2021/07/02 07:08:02;;;;;;;17.10;8.70;;;;;;;16.48;70.16;101019.16;5012934;28;20133;-39
2021/07/02 07:10:32;;;;;;;16.95;7.20;;;;;;;16.58;69.66;101013.75;5014994;28;20049;-40
2021/07/02 07:12:59;;;;;;;14.25;8.18;;;;;;;16.61;69.58;101017.78;5022549;28;20046;-40
2021/07/02 07:15:27;;;;;;;14.60;8.15;;;;;;;16.61;69.57;101014.97;5006460;28;20071;-41
2021/07/02 07:17:54;;;;;;;14.15;8.25;;;;;;;16.64;69.59;101017.81;5016681;28;20034;-39
2021/07/02 07:20:22;;;;;;;12.00;7.78;;;;;;;16.74;69.49;101010.75;5011203;28;20041;-40
2021/07/02 07:22:49;;;;;;;12.02;8.02;;;;;;;16.85;69.16;101020.91;4996076;28;20096;-40
2021/07/02 07:25:20;;;;;;;15.05;7.95;;;;;;;16.94;69.06;101018.59;5011171;28;20052;-40
2021/07/02 07:27:48;;;;;;;13.65;9.68;;;;;;;16.94;68.92;101013.00;5011402;28;20049;-39
2021/07/02 07:30:16;;;;;;;12.43;8.05;;;;;;;17.01;68.69;101010.28;4993330;28;20054;-40
2021/07/02 07:32:45;;;;;;;10.20;7.63;;;;;;;16.98;68.70;101013.84;5011987;28;20049;-40
2021/07/02 07:35:25;;;;;;;14.68;8.65;;;;;;;17.07;68.72;101009.97;5009714;28;20046;-40
2021/07/02 07:37:55;;;;;;;11.82;7.20;;;;;;;17.13;68.61;101016.81;4992460;28;20046;-40
2021/07/02 07:40:23;;;;;;;12.80;7.40;;;;;;;17.28;68.55;101011.00;4993707;28;20052;-41
2021/07/02 07:42:51;;;;;;;18.20;8.23;;;;;;;17.40;68.21;101005.09;5010504;28;20054;-41
2021/07/02 07:45:19;;;;;;;9.60;7.43;;;;;;;17.44;68.30;101017.16;5001697;28;20148;-40
2021/07/02 07:47:46;;;;;;;10.57;7.95;;;;;;;17.46;68.41;101017.56;4992839;28;20054;-41
2021/07/02 07:50:18;;;;;;;13.05;7.95;;;;;;;17.52;67.88;101016.03;5009670;28;20049;-40
2021/07/02 07:53:00;;;;;;;13.05;8.25;;;;;;;17.53;67.67;101020.47;5011515;28;20050;-40
2021/07/02 07:55:29;;;;;;;10.73;7.90;;;;;;;17.51;67.66;101010.81;5000418;28;20088;-41
2021/07/02 07:57:57;;;;;;;12.60;6.70;;;;;;;17.49;67.70;101008.41;5009778;28;20164;-40
2021/07/02 08:00:25;;;;;;;16.15;7.93;;;;;;;17.53;67.89;101003.66;5009499;28;20129;-40
2021/07/02 08:02:52;;;;;;;13.52;8.57;;;;;;;17.66;67.54;101000.59;5004338;28;20056;-42
2021/07/02 08:05:18;;;;;;;15.63;7.50;;;;;;;17.70;67.40;101001.41;5018745;28;20130;-44
2021/07/02 08:07:48;;;;;;;14.45;7.97;;;;;;;17.74;67.38;101002.25;5011007;28;20058;-46
2021/07/02 08:10:17;;;;;;;12.63;8.20;;;;;;;17.82;66.97;101001.91;5009719;28;20064;-49
2021/07/02 08:12:44;;;;;;;13.65;8.05;;;;;;;17.89;66.76;101010.38;5012373;28;20470;-42
2021/07/02 08:15:14;;;;;;;11.35;7.40;;;;;;;17.87;66.79;101000.75;4993158;28;20092;-42
2021/07/02 08:17:41;;;;;;;11.88;7.38;;;;;;;17.85;66.54;101003.13;5009263;28;20058;-40
2021/07/02 08:20:11;;;;;;;14.23;7.95;;;;;;;17.83;66.44;100999.91;5012015;28;20041;-41
2021/07/02 08:22:39;;;;;;;10.43;7.50;;;;;;;17.82;66.44;101004.72;5016325;28;20125;-40
2021/07/02 08:25:07;;;;;;;14.10;8.10;;;;;;;17.80;66.65;101001.50;5009828;28;20128;-40
2021/07/02 08:30:26;;;;;;;13.57;8.50;;;;;;;17.74;66.65;100985.47;4999001;28;20050;-41
2021/07/02 08:32:53;;;;;;;18.23;7.63;;;;;;;17.82;66.70;100992.72;5001556;28;20042;-40
2021/07/02 08:35:21;;;;;;;11.85;7.55;;;;;;;17.87;66.42;100984.72;5010387;28;20045;-41
2021/07/02 08:37:54;;;;;;;13.43;7.15;;;;;;;18.02;66.50;100980.88;4986733;28;20050;-41
2021/07/02 08:40:25;;;;;;;12.95;9.00;;;;;;;18.21;66.09;100988.97;5016160;28;20060;-40
2021/07/02 08:42:53;;;;;;;12.00;7.68;;;;;;;18.42;66.05;100971.50;4991984;28;20033;-41
2021/07/02 08:45:19;;;;;;;15.02;7.28;;;;;;;18.67;65.99;100972.44;5006432;28;20046;-41
2021/07/02 08:47:46;;;;;;;14.93;7.55;;;;;;;18.99;65.35;100966.91;5001785;28;20041;-41
2021/07/02 08:50:14;;;;;;;13.73;8.80;;;;;;;19.28;64.84;100968.59;5013785;28;20045;-42
2021/07/02 08:52:41;;;;;;;9.65;6.95;;;;;;;19.48;64.38;100966.25;5012918;28;20057;-41
2021/07/02 08:55:11;;;;;;;9.68;7.25;;;;;;;19.58;63.75;100953.41;5011928;28;20045;-45
2021/07/02 08:57:38;;;;;;;11.95;7.53;;;;;;;19.68;63.73;100958.22;5008099;28;20085;-43
2021/07/02 09:00:09;;;;;;;9.73;7.28;;;;;;;20.04;63.23;100954.19;5002432;28;20491;-41
2021/07/02 09:02:38;;;;;;;11.98;8.38;;;;;;;20.31;62.51;100960.13;5008374;28;20058;-41
2021/07/02 09:05:30;;;;;;;11.98;6.65;;;;;;;20.41;60.18;100953.72;5015686;28;20046;-41
2021/07/02 09:07:57;;;;;;;11.67;7.47;;;;;;;20.55;61.54;100957.25;4998437;28;20044;-44
2021/07/02 09:10:36;;;;;;;11.27;8.05;;;;;;;20.69;60.18;100949.97;5012104;28;20502;-43
2021/07/02 09:13:04;;;;;;;10.88;7.25;;;;;;;20.75;60.58;100943.50;5009220;28;20105;-40
2021/07/02 09:15:31;;;;;;;12.18;6.85;;;;;;;20.86;60.03;100938.63;5010843;28;20046;-41
2021/07/02 09:18:00;;;;;;;11.60;6.75;;;;;;;20.93;59.80;100944.22;5008569;28;20100;-40
2021/07/02 09:20:39;;;;;;;14.27;6.85;;;;;;;21.02;59.64;100944.53;5012417;28;20060;-41
2021/07/02 09:23:12;;;;;;;13.90;8.40;;;;;;;20.94;59.36;100948.63;5008377;28;20073;-42
2021/07/02 09:25:51;;;;;;;15.07;8.48;;;;;;;20.99;59.17;100953.84;5009432;28;20049;-41
2021/07/02 09:28:33;;;;;;;10.05;7.45;;;;;;;20.89;59.15;100965.94;5017188;28;20045;-42
2021/07/02 09:31:00;;;;;;;11.50;6.93;;;;;;;20.74;59.50;100963.59;5005527;28;20151;-41
2021/07/02 09:33:29;;;;;;;12.07;8.02;;;;;;;20.59;59.40;100957.25;5009172;28;20062;-41
2021/07/02 09:35:59;;;;;;;10.40;6.85;;;;;;;20.52;59.45;100957.25;4991044;28;20064;-41
2021/07/02 09:38:38;;;;;;;10.27;6.72;;;;;;;20.56;59.73;100963.69;5008755;28;20804;-47
2021/07/02 09:41:07;;;;;;;10.45;6.68;;;;;;;20.61;59.17;100963.25;4991920;28;20160;-44
2021/07/02 09:43:35;;;;;;;10.15;6.78;;;;;;;20.61;59.35;100954.81;5007086;28;20472;-43
2021/07/02 09:46:04;;;;;;;10.63;7.32;;;;;;;20.65;59.15;100956.41;5007702;28;20048;-41
2021/07/02 09:48:43;;;;;;;12.13;7.25;;;;;;;20.65;59.13;100962.03;5008543;28;20045;-41
2021/07/02 09:51:11;;;;;;;8.43;6.60;;;;;;;20.59;59.33;100968.50;5007679;28;20138;-47
2021/07/02 09:53:38;;;;;;;14.70;8.20;;;;;;;20.60;59.25;100964.47;5008977;28;20488;-46
2021/07/02 09:56:09;;;;;;;14.10;8.23;;;;;;;20.58;58.90;100966.88;4990910;28;20053;-44
2021/07/02 09:58:39;;;;;;;9.30;7.43;;;;;;;20.55;58.65;100957.25;5009210;28;20054;-45
2021/07/02 10:01:07;;;;;;;14.75;8.98;;;;;;;20.51;58.73;100956.47;5012135;28;20051;-41
2021/07/02 10:03:36;;;;;;;16.60;8.00;;;;;;;20.56;59.00;100967.31;4981265;28;20056;-41
2021/07/02 10:06:18;;;;;;;12.38;8.23;;;;;;;20.61;58.72;100955.63;5017531;28;20080;-42
2021/07/02 10:08:49;;;;;;;14.70;7.78;;;;;;;20.53;58.89;100965.31;5010111;28;20052;-41
2021/07/02 10:11:16;;;;;;;17.02;8.85;;;;;;;20.50;59.16;100956.88;4995821;28;20076;-41
2021/07/02 10:13:46;;;;;;;13.05;7.63;;;;;;;20.52;58.75;100968.50;5004388;28;20438;-41
2021/07/02 10:16:14;;;;;;;15.27;8.35;;;;;;;20.55;58.65;100962.06;5009340;28;20574;-41
2021/07/02 10:18:54;;;;;;;15.80;8.63;;;;;;;20.53;58.69;100956.88;5000131;28;20096;-41
2021/07/02 10:21:24;;;;;;;17.75;8.93;;;;;;;20.60;58.90;100958.84;4999792;28;20042;-44
2021/07/02 10:23:57;;;;;;;12.32;7.45;;;;;;;20.68;58.57;100954.78;5008613;28;20046;-48
2021/07/02 10:26:26;;;;;;;14.10;7.68;;;;;;;20.55;58.48;100959.25;5008509;28;20446;-41
2021/07/02 10:28:53;;;;;;;10.65;8.52;;;;;;;20.55;58.74;100962.06;5015530;28;20053;-42
2021/07/02 10:31:20;;;;;;;14.77;7.80;;;;;;;20.54;58.41;100960.50;5007770;28;20050;-41
2021/07/02 10:33:50;;;;;;;15.45;8.27;;;;;;;20.54;58.41;100949.25;5012788;28;20045;-40
2021/07/02 10:36:18;;;;;;;12.38;7.68;;;;;;;20.52;58.71;100946.81;5000687;28;20140;-42
2021/07/02 10:38:48;;;;;;;14.20;7.85;;;;;;;20.52;58.42;100954.44;5006694;28;20042;-41
2021/07/02 10:41:23;;;;;;;10.23;7.75;;;;;;;20.38;58.58;100949.69;5012971;28;20044;-42
2021/07/02 10:44:12;;;;;;;12.60;8.35;;;;;;;20.26;58.34;100949.31;5005022;28;20092;-40
2021/07/02 10:46:39;;;;;;;11.43;7.90;;;;;;;20.24;58.75;100957.34;5016328;28;20157;-41
2021/07/02 10:49:13;;;;;;;11.60;7.50;;;;;;;20.17;59.20;100957.34;5006290;28;20492;-41
2021/07/02 10:51:43;;;;;;;13.50;7.45;;;;;;;20.17;59.44;100954.53;4993584;28;20037;-41
2021/07/02 10:54:13;;;;;;;12.43;8.05;;;;;;;20.23;59.53;100950.09;5015538;28;20053;-41
2021/07/02 10:57:00;;;;;;;13.95;7.97;;;;;;;20.25;59.42;100959.78;5011159;28;20447;-41
2021/07/02 10:59:36;;;;;;;11.43;8.48;;;;;;;20.18;59.58;100964.56;5010113;28;20062;-41
2021/07/02 11:02:11;;;;;;;18.17;9.88;;;;;;;20.15;59.42;100954.16;4986142;28;20038;-41
2021/07/02 11:04:49;;;;;;;17.25;8.45;;;;;;;20.04;59.52;100960.56;5011672;28;20167;-46
2021/07/02 11:07:19;;;;;;;11.57;7.65;;;;;;;19.98;60.18;100953.78;5012125;28;20092;-43
2021/07/02 11:09:52;;;;;;;15.05;9.30;;;;;;;19.88;60.86;100951.75;5017502;28;20104;-42
2021/07/02 11:12:20;;;;;;;16.65;8.88;;;;;;;19.80;61.17;100958.59;5010414;28;20102;-41
2021/07/02 11:15:01;;;;;;;18.52;9.10;;;;;;;19.78;61.51;100961.00;5017092;28;20046;-41
2021/07/02 11:17:37;;;;;;;15.60;10.10;;;;;;;19.83;61.13;100957.78;5010163;28;20054;-43
2021/07/02 11:20:13;;;;;;;16.05;8.95;;;;;;;19.92;61.27;100963.81;5011436;28;20046;-41
2021/07/02 11:22:52;;;;;;;19.02;9.98;;;;;;;20.05;61.40;100955.75;5010506;28;20100;-43
2021/07/02 11:25:34;;;;;;;13.35;9.45;;;;;;;20.14;60.95;100955.34;5010944;28;20054;-41
2021/07/02 11:28:09;;;;;;;15.20;9.23;;;;;;;20.17;60.61;100968.59;5021182;28;20041;-41
2021/07/02 11:30:39;;;;;;;13.57;9.02;;;;;;;20.24;60.65;100968.59;5001365;28;20077;-41